sensor_id;sensor_type;location;lat;lon;timestamp;temperature;humidity
9006;DHT22;62284;50.702;7.140;2022-12-04T00:01:13;4.40;99.90
9006;DHT22;62284;50.702;7.140;2022-12-04T00:03:42;4.30;99.90
9006;DHT22;62284;50.702;7.140;2022-12-04T00:06:14;4.40;99.90
9006;DHT22;62284;50.702;7.140;2022-12-04T00:08:42;4.40;99.90
9006;DHT22;62284;50.702;7.140;2022-12-04T00:11:10;4.40;99.90
9006;DHT22;62284;50.702;7.140;2022-12-04T00:13:38;4.40;99.90
9006;DHT22;62284;50.702;7.140;2022-12-04T00:16:06;4.40;99.90
9006;DHT22;62284;50.702;7.140;2022-12-04T00:18:33;4.40;99.90
9006;DHT22;62284;50.702;7.140;2022-12-04T00:21:03;4.40;99.90
9006;DHT22;62284;50.702;7.140;2022-12-04T00:23:30;4.40;99.90
9006;DHT22;62284;50.702;7.140;2022-12-04T00:25:59;4.40;99.60
9006;DHT22;62284;50.702;7.140;2022-12-04T00:28:26;4.40;99.70
9006;DHT22;62284;50.702;7.140;2022-12-04T00:30:53;4.40;99.80
9006;DHT22;62284;50.702;7.140;2022-12-04T00:33:20;4.30;99.90
9006;DHT22;62284;50.702;7.140;2022-12-04T00:35:47;4.30;99.60
9006;DHT22;62284;50.702;7.140;2022-12-04T00:38:15;4.30;99.00
9006;DHT22;62284;50.702;7.140;2022-12-04T00:40:48;4.40;98.90
9006;DHT22;62284;50.702;7.140;2022-12-04T00:43:15;4.40;98.80
9006;DHT22;62284;50.702;7.140;2022-12-04T00:45:42;4.30;98.70
9006;DHT22;62284;50.702;7.140;2022-12-04T00:48:09;4.30;98.80
9006;DHT22;62284;50.702;7.140;2022-12-04T00:50:35;4.30;98.80
9006;DHT22;62284;50.702;7.140;2022-12-04T00:53:02;4.30;98.90
9006;DHT22;62284;50.702;7.140;2022-12-04T00:55:31;4.30;98.70
9006;DHT22;62284;50.702;7.140;2022-12-04T00:57:58;4.30;98.50
9006;DHT22;62284;50.702;7.140;2022-12-04T01:00:25;4.30;98.60
9006;DHT22;62284;50.702;7.140;2022-12-04T01:02:51;4.30;98.80
9006;DHT22;62284;50.702;7.140;2022-12-04T01:05:18;4.30;98.60
9006;DHT22;62284;50.702;7.140;2022-12-04T01:07:45;4.30;98.30
9006;DHT22;62284;50.702;7.140;2022-12-04T01:10:13;4.20;98.80
9006;DHT22;62284;50.702;7.140;2022-12-04T01:12:42;4.20;98.30
9006;DHT22;62284;50.702;7.140;2022-12-04T01:15:09;4.20;98.50
9006;DHT22;62284;50.702;7.140;2022-12-04T01:17:36;4.20;98.40
9006;DHT22;62284;50.702;7.140;2022-12-04T01:20:04;4.20;98.50
9006;DHT22;62284;50.702;7.140;2022-12-04T01:22:31;4.10;98.70
9006;DHT22;62284;50.702;7.140;2022-12-04T01:24:58;4.20;98.20
9006;DHT22;62284;50.702;7.140;2022-12-04T01:27:25;4.20;98.30
9006;DHT22;62284;50.702;7.140;2022-12-04T01:29:53;4.10;98.40
9006;DHT22;62284;50.702;7.140;2022-12-04T01:32:20;4.20;98.30
9006;DHT22;62284;50.702;7.140;2022-12-04T01:34:47;4.10;98.20
9006;DHT22;62284;50.702;7.140;2022-12-04T01:37:14;4.10;98.40
9006;DHT22;62284;50.702;7.140;2022-12-04T01:39:41;4.00;98.60
9006;DHT22;62284;50.702;7.140;2022-12-04T01:42:10;4.10;98.60
9006;DHT22;62284;50.702;7.140;2022-12-04T01:44:40;4.10;98.60
9006;DHT22;62284;50.702;7.140;2022-12-04T01:47:09;4.20;98.70
9006;DHT22;62284;50.702;7.140;2022-12-04T01:49:39;4.20;98.60
9006;DHT22;62284;50.702;7.140;2022-12-04T01:52:10;4.20;98.80
9006;DHT22;62284;50.702;7.140;2022-12-04T01:54:41;4.20;98.90
9006;DHT22;62284;50.702;7.140;2022-12-04T01:57:13;4.20;98.90
9006;DHT22;62284;50.702;7.140;2022-12-04T01:59:43;4.20;98.80
9006;DHT22;62284;50.702;7.140;2022-12-04T02:02:15;4.10;98.80
9006;DHT22;62284;50.702;7.140;2022-12-04T02:04:43;4.10;98.70
9006;DHT22;62284;50.702;7.140;2022-12-04T02:07:10;4.10;98.50
9006;DHT22;62284;50.702;7.140;2022-12-04T02:09:38;4.10;98.30
9006;DHT22;62284;50.702;7.140;2022-12-04T02:12:11;4.10;98.40
9006;DHT22;62284;50.702;7.140;2022-12-04T02:14:43;4.10;98.20
9006;DHT22;62284;50.702;7.140;2022-12-04T02:17:20;4.10;98.20
9006;DHT22;62284;50.702;7.140;2022-12-04T02:20:04;4.10;98.40
9006;DHT22;62284;50.702;7.140;2022-12-04T02:22:51;4.10;98.50
9006;DHT22;62284;50.702;7.140;2022-12-04T02:25:26;4.10;98.50
9006;DHT22;62284;50.702;7.140;2022-12-04T02:28:08;4.10;98.20
9006;DHT22;62284;50.702;7.140;2022-12-04T02:30:41;4.10;98.30
9006;DHT22;62284;50.702;7.140;2022-12-04T02:33:16;4.00;98.30
9006;DHT22;62284;50.702;7.140;2022-12-04T02:35:46;4.10;98.20
9006;DHT22;62284;50.702;7.140;2022-12-04T02:38:20;4.00;98.20
9006;DHT22;62284;50.702;7.140;2022-12-04T02:40:52;4.00;97.50
9006;DHT22;62284;50.702;7.140;2022-12-04T02:43:23;3.90;97.90
9006;DHT22;62284;50.702;7.140;2022-12-04T02:45:56;3.90;97.80
9006;DHT22;62284;50.702;7.140;2022-12-04T02:48:25;3.90;97.80
9006;DHT22;62284;50.702;7.140;2022-12-04T02:50:54;3.90;97.60
9006;DHT22;62284;50.702;7.140;2022-12-04T02:53:27;3.90;97.70
9006;DHT22;62284;50.702;7.140;2022-12-04T02:56:00;3.90;97.90
9006;DHT22;62284;50.702;7.140;2022-12-04T02:58:31;3.80;97.90
9006;DHT22;62284;50.702;7.140;2022-12-04T03:01:02;3.80;97.80
9006;DHT22;62284;50.702;7.140;2022-12-04T03:03:43;3.80;97.90
9006;DHT22;62284;50.702;7.140;2022-12-04T03:06:13;3.90;97.80
9006;DHT22;62284;50.702;7.140;2022-12-04T03:08:44;3.80;97.50
9006;DHT22;62284;50.702;7.140;2022-12-04T03:11:12;3.80;97.60
9006;DHT22;62284;50.702;7.140;2022-12-04T03:13:44;3.80;97.90
9006;DHT22;62284;50.702;7.140;2022-12-04T03:16:14;3.80;97.60
9006;DHT22;62284;50.702;7.140;2022-12-04T03:18:43;3.80;97.80
9006;DHT22;62284;50.702;7.140;2022-12-04T03:21:14;3.70;97.90
9006;DHT22;62284;50.702;7.140;2022-12-04T03:23:45;3.80;97.80
9006;DHT22;62284;50.702;7.140;2022-12-04T03:26:18;3.70;97.90
9006;DHT22;62284;50.702;7.140;2022-12-04T03:28:53;3.70;97.70
9006;DHT22;62284;50.702;7.140;2022-12-04T03:31:25;3.80;97.70
9006;DHT22;62284;50.702;7.140;2022-12-04T03:33:55;3.70;97.70
9006;DHT22;62284;50.702;7.140;2022-12-04T03:36:26;3.70;97.70
9006;DHT22;62284;50.702;7.140;2022-12-04T03:38:59;3.70;97.90
9006;DHT22;62284;50.702;7.140;2022-12-04T03:41:30;3.70;97.90
9006;DHT22;62284;50.702;7.140;2022-12-04T03:44:05;3.70;97.90
9006;DHT22;62284;50.702;7.140;2022-12-04T03:46:37;3.70;98.10
9006;DHT22;62284;50.702;7.140;2022-12-04T03:49:10;3.70;98.10
9006;DHT22;62284;50.702;7.140;2022-12-04T03:51:42;3.70;98.20
9006;DHT22;62284;50.702;7.140;2022-12-04T03:54:13;3.80;98.00
9006;DHT22;62284;50.702;7.140;2022-12-04T03:56:45;3.70;97.80
9006;DHT22;62284;50.702;7.140;2022-12-04T03:59:17;3.70;97.90
9006;DHT22;62284;50.702;7.140;2022-12-04T04:01:47;3.70;98.00
9006;DHT22;62284;50.702;7.140;2022-12-04T04:04:18;3.60;98.00
9006;DHT22;62284;50.702;7.140;2022-12-04T04:06:52;3.70;98.00
9006;DHT22;62284;50.702;7.140;2022-12-04T04:09:23;3.60;98.20
9006;DHT22;62284;50.702;7.140;2022-12-04T04:11:54;3.60;98.30
9006;DHT22;62284;50.702;7.140;2022-12-04T04:14:26;3.60;98.30
9006;DHT22;62284;50.702;7.140;2022-12-04T04:17:17;3.60;98.40
9006;DHT22;62284;50.702;7.140;2022-12-04T04:20:04;3.60;98.30
9006;DHT22;62284;50.702;7.140;2022-12-04T04:22:51;3.60;98.30
9006;DHT22;62284;50.702;7.140;2022-12-04T04:25:38;3.70;98.30
9006;DHT22;62284;50.702;7.140;2022-12-04T04:28:25;3.70;98.30
9006;DHT22;62284;50.702;7.140;2022-12-04T04:30:55;3.70;98.10
9006;DHT22;62284;50.702;7.140;2022-12-04T04:33:26;3.70;98.10
9006;DHT22;62284;50.702;7.140;2022-12-04T04:35:58;3.70;98.10
9006;DHT22;62284;50.702;7.140;2022-12-04T04:38:31;3.60;98.00
9006;DHT22;62284;50.702;7.140;2022-12-04T04:41:05;3.60;98.20
9006;DHT22;62284;50.702;7.140;2022-12-04T04:43:40;3.60;98.10
9006;DHT22;62284;50.702;7.140;2022-12-04T04:46:15;3.60;98.10
9006;DHT22;62284;50.702;7.140;2022-12-04T04:48:47;3.60;98.20
9006;DHT22;62284;50.702;7.140;2022-12-04T04:51:15;3.70;98.10
9006;DHT22;62284;50.702;7.140;2022-12-04T04:53:45;3.60;98.00
9006;DHT22;62284;50.702;7.140;2022-12-04T04:56:13;3.50;98.30
9006;DHT22;62284;50.702;7.140;2022-12-04T04:58:41;3.60;98.30
9006;DHT22;62284;50.702;7.140;2022-12-04T05:01:09;3.60;98.30
9006;DHT22;62284;50.702;7.140;2022-12-04T05:03:39;3.70;98.20
9006;DHT22;62284;50.702;7.140;2022-12-04T05:06:06;3.60;98.20
9006;DHT22;62284;50.702;7.140;2022-12-04T05:08:33;3.60;98.30
9006;DHT22;62284;50.702;7.140;2022-12-04T05:11:00;3.70;98.10
9006;DHT22;62284;50.702;7.140;2022-12-04T05:13:28;3.60;98.40
9006;DHT22;62284;50.702;7.140;2022-12-04T05:15:56;3.60;98.40
9006;DHT22;62284;50.702;7.140;2022-12-04T05:18:24;3.50;98.50
9006;DHT22;62284;50.702;7.140;2022-12-04T05:20:52;3.50;98.40
9006;DHT22;62284;50.702;7.140;2022-12-04T05:23:18;3.60;98.50
9006;DHT22;62284;50.702;7.140;2022-12-04T05:25:46;3.50;98.30
9006;DHT22;62284;50.702;7.140;2022-12-04T05:28:13;3.50;98.10
9006;DHT22;62284;50.702;7.140;2022-12-04T05:30:40;3.60;98.20
9006;DHT22;62284;50.702;7.140;2022-12-04T05:33:08;3.50;98.30
9006;DHT22;62284;50.702;7.140;2022-12-04T05:35:35;3.40;98.30
9006;DHT22;62284;50.702;7.140;2022-12-04T05:38:03;3.40;98.40
9006;DHT22;62284;50.702;7.140;2022-12-04T05:40:30;3.40;98.50
9006;DHT22;62284;50.702;7.140;2022-12-04T05:42:56;3.50;98.60
9006;DHT22;62284;50.702;7.140;2022-12-04T05:45:23;3.50;98.50
9006;DHT22;62284;50.702;7.140;2022-12-04T05:47:50;3.50;98.30
9006;DHT22;62284;50.702;7.140;2022-12-04T05:50:17;3.50;98.50
9006;DHT22;62284;50.702;7.140;2022-12-04T05:52:44;3.40;98.60
9006;DHT22;62284;50.702;7.140;2022-12-04T05:55:12;3.40;98.60
9006;DHT22;62284;50.702;7.140;2022-12-04T05:57:39;3.50;98.30
9006;DHT22;62284;50.702;7.140;2022-12-04T06:00:07;3.40;98.30
9006;DHT22;62284;50.702;7.140;2022-12-04T06:02:34;3.40;98.10
9006;DHT22;62284;50.702;7.140;2022-12-04T06:05:01;3.40;98.20
9006;DHT22;62284;50.702;7.140;2022-12-04T06:07:27;3.40;98.30
9006;DHT22;62284;50.702;7.140;2022-12-04T06:09:54;3.30;98.50
9006;DHT22;62284;50.702;7.140;2022-12-04T06:12:22;3.40;98.30
9006;DHT22;62284;50.702;7.140;2022-12-04T06:14:49;3.40;98.20
9006;DHT22;62284;50.702;7.140;2022-12-04T06:17:16;3.30;98.20
9006;DHT22;62284;50.702;7.140;2022-12-04T06:19:43;3.30;98.40
9006;DHT22;62284;50.702;7.140;2022-12-04T06:22:10;3.40;98.60
9006;DHT22;62284;50.702;7.140;2022-12-04T06:24:38;3.40;98.80
9006;DHT22;62284;50.702;7.140;2022-12-04T06:27:05;3.40;98.60
9006;DHT22;62284;50.702;7.140;2022-12-04T06:29:33;3.40;98.50
9006;DHT22;62284;50.702;7.140;2022-12-04T06:32:00;3.50;98.50
9006;DHT22;62284;50.702;7.140;2022-12-04T06:34:27;3.40;98.60
9006;DHT22;62284;50.702;7.140;2022-12-04T06:36:54;3.40;98.90
9006;DHT22;62284;50.702;7.140;2022-12-04T06:39:21;3.30;98.90
9006;DHT22;62284;50.702;7.140;2022-12-04T06:41:47;3.30;98.80
9006;DHT22;62284;50.702;7.140;2022-12-04T06:44:15;3.40;98.60
9006;DHT22;62284;50.702;7.140;2022-12-04T06:46:43;3.40;98.50
9006;DHT22;62284;50.702;7.140;2022-12-04T06:49:10;3.40;98.50
9006;DHT22;62284;50.702;7.140;2022-12-04T06:51:37;3.30;98.20
9006;DHT22;62284;50.702;7.140;2022-12-04T06:54:05;3.30;98.30
9006;DHT22;62284;50.702;7.140;2022-12-04T06:56:32;3.30;98.50
9006;DHT22;62284;50.702;7.140;2022-12-04T06:59:01;3.20;98.70
9006;DHT22;62284;50.702;7.140;2022-12-04T07:01:30;3.30;98.80
9006;DHT22;62284;50.702;7.140;2022-12-04T07:03:59;3.30;98.80
9006;DHT22;62284;50.702;7.140;2022-12-04T07:06:30;3.20;98.90
9006;DHT22;62284;50.702;7.140;2022-12-04T07:08:59;3.20;99.10
9006;DHT22;62284;50.702;7.140;2022-12-04T07:11:26;3.20;99.00
9006;DHT22;62284;50.702;7.140;2022-12-04T07:13:54;3.20;99.10
9006;DHT22;62284;50.702;7.140;2022-12-04T07:16:22;3.20;99.20
9006;DHT22;62284;50.702;7.140;2022-12-04T07:18:49;3.20;99.30
9006;DHT22;62284;50.702;7.140;2022-12-04T07:21:20;3.20;99.30
9006;DHT22;62284;50.702;7.140;2022-12-04T07:23:51;3.20;99.30
9006;DHT22;62284;50.702;7.140;2022-12-04T07:26:19;3.20;99.50
9006;DHT22;62284;50.702;7.140;2022-12-04T07:28:46;3.20;99.50
9006;DHT22;62284;50.702;7.140;2022-12-04T07:31:15;3.20;99.50
9006;DHT22;62284;50.702;7.140;2022-12-04T07:33:43;3.30;99.30
9006;DHT22;62284;50.702;7.140;2022-12-04T07:36:12;3.30;99.30
9006;DHT22;62284;50.702;7.140;2022-12-04T07:38:42;3.30;99.10
9006;DHT22;62284;50.702;7.140;2022-12-04T07:41:10;3.30;98.90
9006;DHT22;62284;50.702;7.140;2022-12-04T07:43:37;3.20;99.30
9006;DHT22;62284;50.702;7.140;2022-12-04T07:46:06;3.30;99.10
9006;DHT22;62284;50.702;7.140;2022-12-04T07:48:33;3.30;99.10
9006;DHT22;62284;50.702;7.140;2022-12-04T07:51:04;3.20;98.90
9006;DHT22;62284;50.702;7.140;2022-12-04T07:53:33;3.20;99.00
9006;DHT22;62284;50.702;7.140;2022-12-04T07:56:02;3.10;99.10
9006;DHT22;62284;50.702;7.140;2022-12-04T07:58:29;3.10;99.10
9006;DHT22;62284;50.702;7.140;2022-12-04T08:01:04;3.20;99.20
9006;DHT22;62284;50.702;7.140;2022-12-04T08:03:31;3.30;99.20
9006;DHT22;62284;50.702;7.140;2022-12-04T08:05:59;3.30;99.10
9006;DHT22;62284;50.702;7.140;2022-12-04T08:08:26;3.30;99.30
9006;DHT22;62284;50.702;7.140;2022-12-04T08:10:53;3.30;99.20
9006;DHT22;62284;50.702;7.140;2022-12-04T08:13:21;3.30;99.30
9006;DHT22;62284;50.702;7.140;2022-12-04T08:15:48;3.30;99.20
9006;DHT22;62284;50.702;7.140;2022-12-04T08:18:15;3.30;99.40
9006;DHT22;62284;50.702;7.140;2022-12-04T08:20:41;3.30;99.40
9006;DHT22;62284;50.702;7.140;2022-12-04T08:23:08;3.30;99.30
9006;DHT22;62284;50.702;7.140;2022-12-04T08:25:37;3.20;99.60
9006;DHT22;62284;50.702;7.140;2022-12-04T08:28:04;3.30;99.50
9006;DHT22;62284;50.702;7.140;2022-12-04T08:30:33;3.30;99.50
9006;DHT22;62284;50.702;7.140;2022-12-04T08:33:00;3.30;99.50
9006;DHT22;62284;50.702;7.140;2022-12-04T08:35:27;3.30;99.50
9006;DHT22;62284;50.702;7.140;2022-12-04T08:37:54;3.30;99.40
9006;DHT22;62284;50.702;7.140;2022-12-04T08:40:21;3.30;99.20
9006;DHT22;62284;50.702;7.140;2022-12-04T08:42:48;3.30;99.20
9006;DHT22;62284;50.702;7.140;2022-12-04T08:45:15;3.30;99.30
9006;DHT22;62284;50.702;7.140;2022-12-04T08:47:43;3.40;99.20
9006;DHT22;62284;50.702;7.140;2022-12-04T08:50:10;3.50;99.20
9006;DHT22;62284;50.702;7.140;2022-12-04T08:52:37;3.50;99.20
9006;DHT22;62284;50.702;7.140;2022-12-04T08:55:05;3.40;99.40
9006;DHT22;62284;50.702;7.140;2022-12-04T08:57:32;3.40;99.30
9006;DHT22;62284;50.702;7.140;2022-12-04T08:59:59;3.50;99.10
9006;DHT22;62284;50.702;7.140;2022-12-04T09:02:26;3.40;99.30
9006;DHT22;62284;50.702;7.140;2022-12-04T09:04:54;3.40;99.20
9006;DHT22;62284;50.702;7.140;2022-12-04T09:07:21;3.30;99.50
9006;DHT22;62284;50.702;7.140;2022-12-04T09:09:48;3.40;99.30
9006;DHT22;62284;50.702;7.140;2022-12-04T09:12:15;3.40;99.40
9006;DHT22;62284;50.702;7.140;2022-12-04T09:14:42;3.40;99.50
9006;DHT22;62284;50.702;7.140;2022-12-04T09:17:09;3.50;99.20
9006;DHT22;62284;50.702;7.140;2022-12-04T09:19:35;3.50;99.20
9006;DHT22;62284;50.702;7.140;2022-12-04T09:22:04;3.40;99.20
9006;DHT22;62284;50.702;7.140;2022-12-04T09:24:31;3.50;99.20
9006;DHT22;62284;50.702;7.140;2022-12-04T09:26:58;3.40;99.30
9006;DHT22;62284;50.702;7.140;2022-12-04T09:29:24;3.50;99.20
9006;DHT22;62284;50.702;7.140;2022-12-04T09:31:51;3.50;99.10
9006;DHT22;62284;50.702;7.140;2022-12-04T09:34:18;3.60;98.90
9006;DHT22;62284;50.702;7.140;2022-12-04T09:36:45;3.60;99.20
9006;DHT22;62284;50.702;7.140;2022-12-04T09:39:13;3.70;99.10
9006;DHT22;62284;50.702;7.140;2022-12-04T09:42:02;3.70;98.80
9006;DHT22;62284;50.702;7.140;2022-12-04T09:44:33;3.70;98.90
9006;DHT22;62284;50.702;7.140;2022-12-04T09:47:03;3.50;99.20
9006;DHT22;62284;50.702;7.140;2022-12-04T09:49:35;3.60;99.20
9006;DHT22;62284;50.702;7.140;2022-12-04T09:52:08;3.60;98.90
9006;DHT22;62284;50.702;7.140;2022-12-04T09:54:41;3.60;99.00
9006;DHT22;62284;50.702;7.140;2022-12-04T09:57:14;3.50;99.40
9006;DHT22;62284;50.702;7.140;2022-12-04T09:59:42;3.60;99.30
9006;DHT22;62284;50.702;7.140;2022-12-04T10:02:23;3.60;99.40
9006;DHT22;62284;50.702;7.140;2022-12-04T10:04:52;3.80;99.20
9006;DHT22;62284;50.702;7.140;2022-12-04T10:07:24;3.90;99.10
9006;DHT22;62284;50.702;7.140;2022-12-04T10:09:56;4.00;98.80
9006;DHT22;62284;50.702;7.140;2022-12-04T10:12:31;4.10;98.60
9006;DHT22;62284;50.702;7.140;2022-12-04T10:15:15;4.20;98.90
9006;DHT22;62284;50.702;7.140;2022-12-04T10:18:16;4.20;98.70
9006;DHT22;62284;50.702;7.140;2022-12-04T10:21:00;4.30;98.40
9006;DHT22;62284;50.702;7.140;2022-12-04T10:23:39;4.30;98.50
9006;DHT22;62284;50.702;7.140;2022-12-04T10:26:15;4.30;98.90
9006;DHT22;62284;50.702;7.140;2022-12-04T10:28:45;4.40;98.50
9006;DHT22;62284;50.702;7.140;2022-12-04T10:31:14;4.30;98.60
9006;DHT22;62284;50.702;7.140;2022-12-04T10:33:44;4.30;98.80
9006;DHT22;62284;50.702;7.140;2022-12-04T10:36:15;4.30;98.60
9006;DHT22;62284;50.702;7.140;2022-12-04T10:38:44;4.40;98.60
9006;DHT22;62284;50.702;7.140;2022-12-04T10:41:19;4.30;98.70
9006;DHT22;62284;50.702;7.140;2022-12-04T10:43:48;4.40;98.80
9006;DHT22;62284;50.702;7.140;2022-12-04T10:46:20;4.40;98.70
9006;DHT22;62284;50.702;7.140;2022-12-04T10:48:50;4.40;98.80
9006;DHT22;62284;50.702;7.140;2022-12-04T10:51:20;4.40;98.60
9006;DHT22;62284;50.702;7.140;2022-12-04T10:53:47;4.40;98.70
9006;DHT22;62284;50.702;7.140;2022-12-04T10:56:18;4.30;98.90
9006;DHT22;62284;50.702;7.140;2022-12-04T10:58:55;4.40;99.00
9006;DHT22;62284;50.702;7.140;2022-12-04T11:01:22;4.40;98.80
9006;DHT22;62284;50.702;7.140;2022-12-04T11:03:56;4.40;99.10
9006;DHT22;62284;50.702;7.140;2022-12-04T11:06:25;4.40;99.10
9006;DHT22;62284;50.702;7.140;2022-12-04T11:08:53;4.40;98.90
9006;DHT22;62284;50.702;7.140;2022-12-04T11:11:26;4.40;99.00
9006;DHT22;62284;50.702;7.140;2022-12-04T11:14:01;4.40;99.10
9006;DHT22;62284;50.702;7.140;2022-12-04T11:16:33;4.40;99.10
9006;DHT22;62284;50.702;7.140;2022-12-04T11:19:00;4.40;99.10
9006;DHT22;62284;50.702;7.140;2022-12-04T11:21:29;4.30;99.20
9006;DHT22;62284;50.702;7.140;2022-12-04T11:23:59;4.30;99.10
9006;DHT22;62284;50.702;7.140;2022-12-04T11:26:34;4.30;99.40
9006;DHT22;62284;50.702;7.140;2022-12-04T11:29:03;4.30;99.60
9006;DHT22;62284;50.702;7.140;2022-12-04T11:31:30;4.40;99.30
9006;DHT22;62284;50.702;7.140;2022-12-04T11:34:00;4.40;99.20
9006;DHT22;62284;50.702;7.140;2022-12-04T11:36:30;4.40;99.20
9006;DHT22;62284;50.702;7.140;2022-12-04T11:39:04;4.40;99.30
9006;DHT22;62284;50.702;7.140;2022-12-04T11:41:34;4.40;99.30
9006;DHT22;62284;50.702;7.140;2022-12-04T11:44:01;4.40;99.30
9006;DHT22;62284;50.702;7.140;2022-12-04T11:46:30;4.40;99.20
9006;DHT22;62284;50.702;7.140;2022-12-04T11:48:58;4.50;99.30
9006;DHT22;62284;50.702;7.140;2022-12-04T11:51:38;4.40;99.40
9006;DHT22;62284;50.702;7.140;2022-12-04T11:54:19;4.50;99.10
9006;DHT22;62284;50.702;7.140;2022-12-04T11:56:55;4.50;99.50
9006;DHT22;62284;50.702;7.140;2022-12-04T11:59:40;4.50;99.50
9006;DHT22;62284;50.702;7.140;2022-12-04T12:02:27;4.50;99.50
9006;DHT22;62284;50.702;7.140;2022-12-04T12:05:21;4.40;99.80
9006;DHT22;62284;50.702;7.140;2022-12-04T12:07:58;4.50;99.80
9006;DHT22;62284;50.702;7.140;2022-12-04T12:10:32;4.50;99.80
9006;DHT22;62284;50.702;7.140;2022-12-04T12:13:07;4.50;99.60
9006;DHT22;62284;50.702;7.140;2022-12-04T12:15:42;4.50;99.50
9006;DHT22;62284;50.702;7.140;2022-12-04T12:18:33;4.50;99.50
9006;DHT22;62284;50.702;7.140;2022-12-04T12:21:04;4.60;99.00
9006;DHT22;62284;50.702;7.140;2022-12-04T12:23:44;4.60;99.00
9006;DHT22;62284;50.702;7.140;2022-12-04T12:26:14;4.60;99.20
9006;DHT22;62284;50.702;7.140;2022-12-04T12:28:59;4.50;99.30
9006;DHT22;62284;50.702;7.140;2022-12-04T12:32:02;4.50;99.30
9006;DHT22;62284;50.702;7.140;2022-12-04T12:34:35;4.50;99.40
9006;DHT22;62284;50.702;7.140;2022-12-04T12:37:09;4.50;99.70
9006;DHT22;62284;50.702;7.140;2022-12-04T12:39:39;4.60;99.50
9006;DHT22;62284;50.702;7.140;2022-12-04T12:42:13;4.60;99.40
9006;DHT22;62284;50.702;7.140;2022-12-04T12:44:47;4.50;99.50
9006;DHT22;62284;50.702;7.140;2022-12-04T12:47:17;4.50;99.70
9006;DHT22;62284;50.702;7.140;2022-12-04T12:49:47;4.50;99.80
9006;DHT22;62284;50.702;7.140;2022-12-04T12:52:22;4.50;99.80
9006;DHT22;62284;50.702;7.140;2022-12-04T12:54:54;4.40;99.80
9006;DHT22;62284;50.702;7.140;2022-12-04T12:57:26;4.40;99.90
9006;DHT22;62284;50.702;7.140;2022-12-04T13:00:02;4.50;99.80
9006;DHT22;62284;50.702;7.140;2022-12-04T13:02:34;4.50;99.90
9006;DHT22;62284;50.702;7.140;2022-12-04T13:05:05;4.50;99.90
9006;DHT22;62284;50.702;7.140;2022-12-04T13:07:41;4.40;99.90
9006;DHT22;62284;50.702;7.140;2022-12-04T13:10:15;4.40;99.90
9006;DHT22;62284;50.702;7.140;2022-12-04T13:12:46;4.40;99.90
9006;DHT22;62284;50.702;7.140;2022-12-04T13:15:17;4.40;99.90
9006;DHT22;62284;50.702;7.140;2022-12-04T13:17:49;4.40;99.90
9006;DHT22;62284;50.702;7.140;2022-12-04T13:20:20;4.40;99.90
9006;DHT22;62284;50.702;7.140;2022-12-04T13:23:05;4.30;99.90
9006;DHT22;62284;50.702;7.140;2022-12-04T13:25:48;4.40;99.90
9006;DHT22;62284;50.702;7.140;2022-12-04T13:28:36;4.40;99.90
9006;DHT22;62284;50.702;7.140;2022-12-04T13:31:13;4.50;99.90
9006;DHT22;62284;50.702;7.140;2022-12-04T13:37:15;4.50;99.90
9006;DHT22;62284;50.702;7.140;2022-12-04T13:40:16;4.50;99.90
9006;DHT22;62284;50.702;7.140;2022-12-04T13:42:49;4.50;99.90
9006;DHT22;62284;50.702;7.140;2022-12-04T13:45:25;4.40;99.90
9006;DHT22;62284;50.702;7.140;2022-12-04T13:47:58;4.40;99.90
9006;DHT22;62284;50.702;7.140;2022-12-04T13:50:27;4.40;99.90
9006;DHT22;62284;50.702;7.140;2022-12-04T13:52:55;4.40;99.90
9006;DHT22;62284;50.702;7.140;2022-12-04T13:55:28;4.40;99.90
9006;DHT22;62284;50.702;7.140;2022-12-04T13:57:58;4.40;99.90
9006;DHT22;62284;50.702;7.140;2022-12-04T14:00:30;4.40;99.90
9006;DHT22;62284;50.702;7.140;2022-12-04T14:03:02;4.40;99.90
9006;DHT22;62284;50.702;7.140;2022-12-04T14:05:31;4.40;99.90
9006;DHT22;62284;50.702;7.140;2022-12-04T14:08:06;4.40;99.90
9006;DHT22;62284;50.702;7.140;2022-12-04T14:10:42;4.50;99.90
9006;DHT22;62284;50.702;7.140;2022-12-04T14:13:17;4.30;99.90
9006;DHT22;62284;50.702;7.140;2022-12-04T14:15:45;4.30;99.90
9006;DHT22;62284;50.702;7.140;2022-12-04T14:18:19;4.30;99.90
9006;DHT22;62284;50.702;7.140;2022-12-04T14:20:57;4.40;99.90
9006;DHT22;62284;50.702;7.140;2022-12-04T14:23:33;4.40;99.90
9006;DHT22;62284;50.702;7.140;2022-12-04T14:26:00;4.40;99.90
9006;DHT22;62284;50.702;7.140;2022-12-04T14:28:40;4.50;99.90
9006;DHT22;62284;50.702;7.140;2022-12-04T14:31:30;4.40;99.90
9006;DHT22;62284;50.702;7.140;2022-12-04T14:34:03;4.50;99.90
9006;DHT22;62284;50.702;7.140;2022-12-04T14:36:36;4.40;99.90
9006;DHT22;62284;50.702;7.140;2022-12-04T14:39:10;4.40;99.90
9006;DHT22;62284;50.702;7.140;2022-12-04T14:41:38;4.40;99.90
9006;DHT22;62284;50.702;7.140;2022-12-04T14:44:05;4.40;99.90
9006;DHT22;62284;50.702;7.140;2022-12-04T14:46:40;4.50;99.90
9006;DHT22;62284;50.702;7.140;2022-12-04T14:49:24;4.40;99.90
9006;DHT22;62284;50.702;7.140;2022-12-04T14:52:00;4.40;99.90
9006;DHT22;62284;50.702;7.140;2022-12-04T14:54:35;4.50;99.90
9006;DHT22;62284;50.702;7.140;2022-12-04T14:57:18;4.40;99.90
9006;DHT22;62284;50.702;7.140;2022-12-04T14:59:49;4.40;99.90
9006;DHT22;62284;50.702;7.140;2022-12-04T15:02:20;4.40;99.90
9006;DHT22;62284;50.702;7.140;2022-12-04T15:04:49;4.40;99.90
9006;DHT22;62284;50.702;7.140;2022-12-04T15:07:18;4.40;99.90
9006;DHT22;62284;50.702;7.140;2022-12-04T15:09:53;4.40;99.90
9006;DHT22;62284;50.702;7.140;2022-12-04T15:12:51;4.50;99.90
9006;DHT22;62284;50.702;7.140;2022-12-04T15:15:20;4.50;99.90
9006;DHT22;62284;50.702;7.140;2022-12-04T15:17:57;4.50;99.90
9006;DHT22;62284;50.702;7.140;2022-12-04T15:20:26;4.50;99.90
9006;DHT22;62284;50.702;7.140;2022-12-04T15:22:55;4.40;99.90
9006;DHT22;62284;50.702;7.140;2022-12-04T15:25:25;4.40;99.90
9006;DHT22;62284;50.702;7.140;2022-12-04T15:28:01;4.40;99.90
9006;DHT22;62284;50.702;7.140;2022-12-04T15:30:30;4.40;99.90
9006;DHT22;62284;50.702;7.140;2022-12-04T15:33:02;4.30;99.90
9006;DHT22;62284;50.702;7.140;2022-12-04T15:35:32;4.30;99.90
9006;DHT22;62284;50.702;7.140;2022-12-04T15:37:59;4.40;99.90
9006;DHT22;62284;50.702;7.140;2022-12-04T15:40:28;4.40;99.90
9006;DHT22;62284;50.702;7.140;2022-12-04T15:43:06;4.40;99.90
9006;DHT22;62284;50.702;7.140;2022-12-04T15:45:39;4.50;99.90
9006;DHT22;62284;50.702;7.140;2022-12-04T15:48:07;4.40;99.90
9006;DHT22;62284;50.702;7.140;2022-12-04T15:50:35;4.40;99.90
9006;DHT22;62284;50.702;7.140;2022-12-04T15:53:06;4.30;99.90
9006;DHT22;62284;50.702;7.140;2022-12-04T15:55:38;4.40;99.90
9006;DHT22;62284;50.702;7.140;2022-12-04T15:58:17;4.40;99.90
9006;DHT22;62284;50.702;7.140;2022-12-04T16:00:45;4.50;99.90
9006;DHT22;62284;50.702;7.140;2022-12-04T16:03:22;4.50;99.90
9006;DHT22;62284;50.702;7.140;2022-12-04T16:06:04;4.50;99.90
9006;DHT22;62284;50.702;7.140;2022-12-04T16:08:33;4.50;99.90
9006;DHT22;62284;50.702;7.140;2022-12-04T16:11:03;4.40;99.90
9006;DHT22;62284;50.702;7.140;2022-12-04T16:13:32;4.40;99.90
9006;DHT22;62284;50.702;7.140;2022-12-04T16:16:00;4.40;99.90
9006;DHT22;62284;50.702;7.140;2022-12-04T16:18:29;4.50;99.90
9006;DHT22;62284;50.702;7.140;2022-12-04T16:20:58;4.40;99.90
9006;DHT22;62284;50.702;7.140;2022-12-04T16:23:25;4.40;99.90
9006;DHT22;62284;50.702;7.140;2022-12-04T16:25:52;4.50;99.90
9006;DHT22;62284;50.702;7.140;2022-12-04T16:28:20;4.50;99.90
9006;DHT22;62284;50.702;7.140;2022-12-04T16:30:49;4.40;99.90